KGYY

Gary/Chicago International Airport

Gary, Indiana, USA
METAR KGYY 170145Z 00000KT 10SM SKC M01/M02 A3004
Observed Flight Rules
Dec-17 @ 01:45 UTC (29 minutes ago) Visual Flight Rules
Wind Visibility Clouds
Calm 10 miles
  • Clear skies
Temperatures Readings
Current -1°C / 30°F
Dewpoint -2°C / 28°F
Humidity 93%
Altimeter 30.04" Hg
Pressure 1017 hPa
Elevation 180
METAR KGYY 170145Z 00000KT 10SM SKC M01/M02 A3004
Observed Flight Rules
Dec-17 @ 01:45 UTC
(29 minutes ago)
VFR
Wind Visibility
Calm 10 miles
Clouds
  • Clear skies
Temperature Dewpoint
-1°C / 30°F -2°C / 28°F
Humidity Altimeter Pressure
93% 30.04" Hg 1017 hPa